Time;durP1;ratioP1;P1;durP2;ratioP2;P2;SDS_P1;SDS_P2;PMS_P1;PMS_P2;Temp;Humidity;BMP_temperature;BMP_pressure;BME280_temperature;BME280_humidity;BME280_pressure;Samples;Min_cycle;Max_cycle;Signal;HPM_P1;HPM_P2
2024/01/23 00:00:51;;;;;;;0.10;0.10;;;;;;;;;;5081643;28;20124;-80
2024/01/23 00:03:18;;;;;;;0.10;0.10;;;;;;;;;;5066505;28;20083;-80
2024/01/23 00:05:45;;;;;;;0.10;0.10;;;;;;;;;;5059713;28;20133;-81
2024/01/23 00:08:11;;;;;;;0.10;0.10;;;;;;;;;;5080639;28;20049;-81
2024/01/23 00:10:37;;;;;;;0.10;0.10;;;;;;;;;;5062331;28;20057;-81
2024/01/23 00:13:04;;;;;;;0.10;0.10;;;;;;;;;;5080378;28;20063;-81
2024/01/23 00:15:30;;;;;;;0.10;0.10;;;;;;;;;;5063262;28;20059;-80
2024/01/23 00:17:57;;;;;;;0.10;0.10;;;;;;;;;;5067994;28;20064;-81
2024/01/23 00:20:23;;;;;;;0.10;0.10;;;;;;;;;;5062512;28;20724;-81
2024/01/23 00:22:50;;;;;;;0.80;0.80;;;;;;;;;;5078955;28;20515;-81
2024/01/23 00:25:17;;;;;;;0.10;0.10;;;;;;;;;;5062557;28;20109;-81
2024/01/23 00:27:43;;;;;;;0.10;0.10;;;;;;;;;;5064856;28;20037;-81
2024/01/23 00:30:10;;;;;;;0.20;0.20;;;;;;;;;;5080577;28;20057;-81
2024/01/23 00:32:37;;;;;;;0.15;0.15;;;;;;;;;;5063934;28;20072;-81
2024/01/23 00:35:03;;;;;;;0.10;0.10;;;;;;;;;;5067822;28;20088;-81
2024/01/23 00:37:31;;;;;;;0.10;0.10;;;;;;;;;;5084784;28;20059;-81
2024/01/23 00:39:59;;;;;;;0.10;0.10;;;;;;;;;;5058739;28;20100;-80
2024/01/23 00:42:26;;;;;;;0.20;0.20;;;;;;;;;;5047977;28;20041;-81
2024/01/23 00:44:56;;;;;;;0.10;0.10;;;;;;;;;;5055440;28;20052;-81
2024/01/23 00:47:24;;;;;;;0.10;0.10;;;;;;;;;;5053406;28;20048;-81
2024/01/23 00:49:53;;;;;;;0.10;0.10;;;;;;;;;;5061679;28;20065;-81
2024/01/23 00:52:20;;;;;;;0.10;0.10;;;;;;;;;;5064144;28;20115;-81
2024/01/23 00:54:46;;;;;;;0.10;0.10;;;;;;;;;;5062541;28;20056;-81
2024/01/23 00:57:13;;;;;;;0.10;0.10;;;;;;;;;;5056453;28;20438;-81
2024/01/23 00:59:39;;;;;;;0.10;0.10;;;;;;;;;;5063861;28;20037;-81
2024/01/23 01:02:06;;;;;;;0.10;0.10;;;;;;;;;;5064489;28;20041;-81
2024/01/23 01:04:33;;;;;;;0.10;0.10;;;;;;;;;;5064320;28;20529;-81
2024/01/23 01:07:00;;;;;;;0.10;0.10;;;;;;;;;;5061741;28;20064;-81
2024/01/23 01:09:27;;;;;;;0.10;0.10;;;;;;;;;;5078173;28;20080;-81
2024/01/23 01:11:53;;;;;;;0.10;0.10;;;;;;;;;;5069332;28;20091;-81
2024/01/23 01:14:20;;;;;;;0.10;0.10;;;;;;;;;;5060133;28;20055;-81
2024/01/23 01:16:46;;;;;;;0.10;0.10;;;;;;;;;;5063854;28;20060;-81
2024/01/23 01:19:12;;;;;;;0.10;0.10;;;;;;;;;;5081443;28;20036;-81
2024/01/23 01:21:39;;;;;;;0.10;0.10;;;;;;;;;;5080147;28;20060;-82
2024/01/23 01:24:05;;;;;;;0.03;0.03;;;;;;;;;;5067644;28;20068;-81
2024/01/23 01:26:32;;;;;;;0.10;0.10;;;;;;;;;;5069284;28;20080;-81
2024/01/23 01:28:58;;;;;;;0.20;0.20;;;;;;;;;;5065594;28;20123;-80
2024/01/23 01:31:25;;;;;;;0.10;0.10;;;;;;;;;;5080170;28;20964;-81
2024/01/23 01:33:52;;;;;;;0.10;0.10;;;;;;;;;;5064639;28;20423;-81
2024/01/23 01:36:19;;;;;;;0.10;0.10;;;;;;;;;;5060676;28;20049;-80
2024/01/23 01:38:45;;;;;;;0.25;0.25;;;;;;;;;;5077526;28;20044;-81
2024/01/23 01:41:13;;;;;;;0.10;0.10;;;;;;;;;;5061602;28;20076;-81
2024/01/23 01:43:40;;;;;;;0.10;0.10;;;;;;;;;;5068456;28;20045;-81
2024/01/23 01:46:13;;;;;;;0.10;0.10;;;;;;;;;;5066316;28;20123;-81
2024/01/23 01:48:40;;;;;;;0.10;0.10;;;;;;;;;;5063228;28;20084;-80
2024/01/23 01:51:07;;;;;;;0.10;0.10;;;;;;;;;;5069886;28;20578;-80
2024/01/23 01:53:34;;;;;;;0.10;0.10;;;;;;;;;;5054421;28;20029;-82
2024/01/23 01:56:02;;;;;;;0.10;0.10;;;;;;;;;;5057477;28;20139;-81
2024/01/23 01:58:30;;;;;;;0.10;0.10;;;;;;;;;;5076209;28;20146;-80
2024/01/23 02:00:57;;;;;;;0.10;0.10;;;;;;;;;;5060481;28;20056;-80
2024/01/23 02:03:24;;;;;;;0.10;0.10;;;;;;;;;;5079457;28;20584;-79
2024/01/23 02:05:51;;;;;;;0.10;0.10;;;;;;;;;;5077861;28;20109;-80
2024/01/23 02:08:18;;;;;;;0.10;0.10;;;;;;;;;;5061032;28;20135;-81
2024/01/23 02:10:44;;;;;;;0.10;0.10;;;;;;;;;;5080446;28;20057;-81
2024/01/23 02:13:11;;;;;;;0.10;0.10;;;;;;;;;;5064205;28;20033;-80
2024/01/23 02:15:37;;;;;;;0.10;0.10;;;;;;;;;;5081547;28;20148;-80
2024/01/23 02:18:03;;;;;;;0.10;0.10;;;;;;;;;;5064024;28;20037;-81
2024/01/23 02:20:30;;;;;;;0.10;0.10;;;;;;;;;;5070258;28;20056;-80
2024/01/23 02:22:57;;;;;;;0.10;0.10;;;;;;;;;;5070413;28;20901;-81
2024/01/23 02:25:26;;;;;;;0.10;0.10;;;;;;;;;;5058111;28;20076;-80
2024/01/23 02:27:55;;;;;;;0.10;0.10;;;;;;;;;;5079283;28;20525;-80
2024/01/23 02:30:22;;;;;;;0.10;0.10;;;;;;;;;;5080649;28;20057;-80
2024/01/23 02:32:48;;;;;;;0.10;0.10;;;;;;;;;;5074973;28;20079;-80
2024/01/23 02:35:15;;;;;;;0.10;0.10;;;;;;;;;;5059998;28;20111;-81
2024/01/23 02:37:41;;;;;;;0.10;0.10;;;;;;;;;;5068943;28;20100;-80
2024/01/23 02:40:10;;;;;;;0.13;0.13;;;;;;;;;;5065247;28;20053;-80
2024/01/23 02:42:36;;;;;;;0.10;0.10;;;;;;;;;;5058061;28;20169;-80
2024/01/23 02:45:03;;;;;;;0.43;0.43;;;;;;;;;;5056009;28;20076;-80
2024/01/23 02:47:30;;;;;;;0.10;0.10;;;;;;;;;;5069848;28;20941;-80
2024/01/23 02:49:56;;;;;;;0.10;0.10;;;;;;;;;;5053526;28;20056;-81
2024/01/23 02:52:27;;;;;;;0.10;0.10;;;;;;;;;;5074103;28;20082;-80
2024/01/23 02:54:54;;;;;;;0.20;0.20;;;;;;;;;;5057238;28;20056;-80
2024/01/23 02:57:20;;;;;;;0.10;0.10;;;;;;;;;;5074284;28;20053;-81
2024/01/23 02:59:46;;;;;;;0.10;0.10;;;;;;;;;;5067554;28;20038;-80
2024/01/23 03:02:13;;;;;;;0.10;0.10;;;;;;;;;;5057147;28;20323;-81
2024/01/23 03:04:39;;;;;;;0.10;0.10;;;;;;;;;;5051742;28;20150;-81
2024/01/23 03:07:07;;;;;;;0.65;0.65;;;;;;;;;;5055901;28;20063;-79
2024/01/23 03:09:33;;;;;;;0.10;0.10;;;;;;;;;;5056091;28;20053;-80
2024/01/23 03:12:03;;;;;;;0.10;0.10;;;;;;;;;;5074930;28;20511;-79
2024/01/23 03:14:30;;;;;;;0.47;0.47;;;;;;;;;;5057082;28;20512;-80
2024/01/23 03:16:56;;;;;;;0.10;0.10;;;;;;;;;;5079019;28;20072;-80
2024/01/23 03:19:22;;;;;;;0.10;0.10;;;;;;;;;;5053200;28;20139;-79
2024/01/23 03:21:49;;;;;;;0.10;0.10;;;;;;;;;;5071082;28;20392;-80
2024/01/23 03:24:15;;;;;;;0.10;0.10;;;;;;;;;;5058952;28;20037;-80
2024/01/23 03:26:42;;;;;;;0.10;0.10;;;;;;;;;;5046863;28;20044;-80
2024/01/23 03:29:09;;;;;;;0.10;0.10;;;;;;;;;;5058220;28;20057;-80
2024/01/23 03:31:36;;;;;;;0.10;0.10;;;;;;;;;;5074355;28;20556;-80
2024/01/23 03:34:02;;;;;;;0.10;0.10;;;;;;;;;;5056624;28;20052;-80
2024/01/23 03:36:29;;;;;;;0.10;0.10;;;;;;;;;;5047906;28;20199;-80
2024/01/23 03:38:56;;;;;;;0.10;0.10;;;;;;;;;;5050316;28;20108;-80
2024/01/23 03:41:23;;;;;;;0.10;0.10;;;;;;;;;;5059707;28;20510;-80
2024/01/23 03:43:50;;;;;;;0.10;0.10;;;;;;;;;;5060527;28;20084;-80
2024/01/23 03:46:16;;;;;;;0.10;0.10;;;;;;;;;;5057197;28;20957;-80
2024/01/23 03:48:42;;;;;;;0.10;0.10;;;;;;;;;;5072959;28;20056;-80
2024/01/23 03:51:09;;;;;;;1.00;0.98;;;;;;;;;;5064010;28;20771;-80
2024/01/23 03:53:35;;;;;;;0.10;0.10;;;;;;;;;;5047057;28;20072;-81
2024/01/23 03:56:02;;;;;;;0.10;0.10;;;;;;;;;;5058808;28;20056;-81
2024/01/23 03:58:28;;;;;;;0.10;0.10;;;;;;;;;;5058133;28;20057;-81
2024/01/23 04:00:57;;;;;;;0.10;0.10;;;;;;;;;;5075753;28;20075;-80
2024/01/23 04:03:24;;;;;;;0.10;0.10;;;;;;;;;;5067475;28;20636;-80
2024/01/23 04:05:50;;;;;;;0.10;0.10;;;;;;;;;;5046244;28;20440;-80
2024/01/23 04:08:17;;;;;;;0.10;0.10;;;;;;;;;;5121947;22;20556;-77
2024/01/23 04:10:43;;;;;;;0.10;0.10;;;;;;;;;;5058722;28;20054;-77
2024/01/23 04:13:10;;;;;;;0.43;0.43;;;;;;;;;;5067710;28;20056;-77
2024/01/23 04:15:36;;;;;;;0.10;0.10;;;;;;;;;;5061969;28;20069;-77
2024/01/23 04:18:02;;;;;;;0.10;0.10;;;;;;;;;;5058134;28;20052;-78
2024/01/23 04:20:29;;;;;;;0.10;0.10;;;;;;;;;;5069059;28;20053;-78
2024/01/23 04:22:55;;;;;;;0.10;0.10;;;;;;;;;;5068345;28;20057;-77
2024/01/23 04:25:22;;;;;;;0.10;0.10;;;;;;;;;;5069187;28;20140;-78
2024/01/23 04:27:48;;;;;;;0.10;0.10;;;;;;;;;;5054848;28;20057;-78
2024/01/23 04:30:15;;;;;;;0.10;0.10;;;;;;;;;;5069092;28;20049;-78
2024/01/23 04:32:41;;;;;;;0.10;0.10;;;;;;;;;;5068740;28;20114;-78
2024/01/23 04:35:08;;;;;;;0.13;0.13;;;;;;;;;;5067695;28;20140;-78
2024/01/23 04:37:34;;;;;;;0.10;0.10;;;;;;;;;;5068633;28;20111;-78
2024/01/23 04:40:01;;;;;;;0.00;0.00;;;;;;;;;;5067850;28;20064;-78
2024/01/23 04:42:27;;;;;;;0.10;0.10;;;;;;;;;;5066898;28;20502;-78
2024/01/23 04:44:54;;;;;;;0.10;0.10;;;;;;;;;;5065213;28;20063;-77
2024/01/23 04:47:20;;;;;;;0.10;0.10;;;;;;;;;;5069425;28;20052;-77
2024/01/23 04:49:47;;;;;;;0.03;0.03;;;;;;;;;;5065323;28;20115;-78
2024/01/23 04:52:13;;;;;;;0.10;0.10;;;;;;;;;;5073641;28;20580;-77
2024/01/23 04:54:41;;;;;;;0.10;0.10;;;;;;;;;;5068878;28;20053;-78
2024/01/23 04:57:08;;;;;;;0.10;0.10;;;;;;;;;;5069062;28;20521;-78
2024/01/23 04:59:35;;;;;;;0.10;0.10;;;;;;;;;;5069257;28;20106;-78
2024/01/23 05:02:01;;;;;;;0.10;0.10;;;;;;;;;;5069023;28;20049;-77
2024/01/23 05:04:28;;;;;;;0.10;0.10;;;;;;;;;;5056942;28;20044;-77
2024/01/23 05:06:55;;;;;;;0.10;0.10;;;;;;;;;;5067127;28;20056;-77
2024/01/23 05:09:21;;;;;;;0.10;0.10;;;;;;;;;;5072767;28;20052;-77
2024/01/23 05:11:50;;;;;;;0.10;0.10;;;;;;;;;;5063783;28;20048;-77
2024/01/23 05:14:17;;;;;;;0.10;0.10;;;;;;;;;;5066347;28;20598;-77
2024/01/23 05:16:43;;;;;;;0.10;0.10;;;;;;;;;;5059950;28;20053;-77
2024/01/23 05:19:10;;;;;;;0.10;0.10;;;;;;;;;;5061068;28;20533;-77
2024/01/23 05:21:37;;;;;;;0.10;0.10;;;;;;;;;;5058297;28;22233;-77
2024/01/23 05:24:03;;;;;;;0.10;0.10;;;;;;;;;;5067810;28;20140;-77
2024/01/23 05:26:30;;;;;;;0.10;0.10;;;;;;;;;;5049052;28;20060;-77
2024/01/23 05:28:57;;;;;;;0.10;0.10;;;;;;;;;;5068089;28;20057;-77
2024/01/23 05:31:23;;;;;;;0.10;0.10;;;;;;;;;;5067789;28;20522;-77
2024/01/23 05:33:49;;;;;;;0.10;0.10;;;;;;;;;;5051276;28;20561;-77
2024/01/23 05:36:17;;;;;;;0.55;0.55;;;;;;;;;;5070608;28;20053;-77
2024/01/23 05:38:44;;;;;;;0.10;0.10;;;;;;;;;;5060951;28;20057;-77
2024/01/23 05:41:10;;;;;;;0.10;0.10;;;;;;;;;;5068939;28;20060;-77
2024/01/23 05:43:37;;;;;;;0.10;0.10;;;;;;;;;;5070626;28;20527;-77
2024/01/23 05:46:03;;;;;;;0.10;0.10;;;;;;;;;;5072874;28;20052;-77
2024/01/23 05:48:30;;;;;;;0.10;0.10;;;;;;;;;;5072022;28;20063;-77
2024/01/23 05:50:56;;;;;;;0.10;0.10;;;;;;;;;;5071973;28;20631;-77
2024/01/23 05:53:23;;;;;;;0.10;0.10;;;;;;;;;;5064263;28;20053;-77
2024/01/23 05:55:49;;;;;;;0.10;0.10;;;;;;;;;;5071106;28;20045;-77
2024/01/23 05:58:15;;;;;;;0.10;0.10;;;;;;;;;;5070837;28;20052;-77
2024/01/23 06:00:42;;;;;;;0.10;0.10;;;;;;;;;;5059382;28;20494;-77
2024/01/23 06:03:08;;;;;;;0.10;0.10;;;;;;;;;;5071456;28;20053;-77
2024/01/23 06:05:35;;;;;;;0.10;0.10;;;;;;;;;;5065086;28;20060;-77
2024/01/23 06:08:01;;;;;;;0.10;0.10;;;;;;;;;;5070299;28;20053;-77
2024/01/23 06:10:28;;;;;;;0.10;0.10;;;;;;;;;;5071251;28;20139;-77
2024/01/23 06:12:54;;;;;;;0.10;0.10;;;;;;;;;;5070816;28;20064;-78
2024/01/23 06:15:21;;;;;;;0.10;0.10;;;;;;;;;;5070788;28;20056;-77
2024/01/23 06:17:47;;;;;;;0.10;0.10;;;;;;;;;;5071069;28;20053;-77
2024/01/23 06:20:13;;;;;;;0.10;0.10;;;;;;;;;;5070284;28;20390;-77
2024/01/23 06:22:40;;;;;;;0.10;0.10;;;;;;;;;;5068910;28;20057;-77
2024/01/23 06:25:14;;;;;;;0.10;0.10;;;;;;;;;;5052903;28;20087;-77
2024/01/23 06:27:41;;;;;;;0.10;0.10;;;;;;;;;;5067664;28;20053;-77
2024/01/23 06:30:11;;;;;;;0.38;0.38;;;;;;;;;;5059968;28;20103;-77
2024/01/23 06:32:38;;;;;;;0.10;0.10;;;;;;;;;;5060875;28;20052;-77
2024/01/23 06:35:05;;;;;;;0.10;0.10;;;;;;;;;;5070965;28;20057;-77
2024/01/23 06:37:31;;;;;;;0.10;0.10;;;;;;;;;;5067789;28;20052;-77
2024/01/23 06:39:57;;;;;;;0.10;0.10;;;;;;;;;;5056997;28;20148;-77
2024/01/23 06:42:24;;;;;;;0.10;0.10;;;;;;;;;;5068555;28;20045;-77
2024/01/23 06:44:50;;;;;;;0.10;0.10;;;;;;;;;;5070121;28;20099;-77
2024/01/23 06:47:17;;;;;;;0.10;0.10;;;;;;;;;;5065989;28;20092;-77
2024/01/23 06:49:44;;;;;;;0.10;0.10;;;;;;;;;;5048574;28;20060;-77
2024/01/23 06:52:11;;;;;;;0.10;0.10;;;;;;;;;;5061670;28;20057;-77
2024/01/23 06:54:38;;;;;;;0.10;0.10;;;;;;;;;;5034489;28;20135;-77
2024/01/23 06:57:04;;;;;;;0.20;0.20;;;;;;;;;;5054602;28;20141;-77
2024/01/23 06:59:31;;;;;;;0.10;0.10;;;;;;;;;;5067688;28;20056;-77
2024/01/23 07:01:58;;;;;;;0.10;0.10;;;;;;;;;;5065118;28;20080;-77
2024/01/23 07:04:24;;;;;;;0.10;0.10;;;;;;;;;;5065089;28;20057;-77
2024/01/23 07:06:51;;;;;;;0.10;0.10;;;;;;;;;;5068587;28;20582;-77
2024/01/23 07:09:17;;;;;;;0.10;0.10;;;;;;;;;;5070392;28;20103;-77
2024/01/23 07:11:45;;;;;;;0.47;0.47;;;;;;;;;;5060538;28;20130;-77
2024/01/23 07:14:11;;;;;;;0.10;0.10;;;;;;;;;;5069713;28;20132;-79
2024/01/23 07:16:37;;;;;;;0.10;0.10;;;;;;;;;;5072287;28;20052;-79
2024/01/23 07:19:04;;;;;;;0.10;0.10;;;;;;;;;;5071646;28;20063;-79
2024/01/23 07:21:30;;;;;;;0.10;0.10;;;;;;;;;;5070878;28;20057;-79
2024/01/23 07:23:57;;;;;;;0.10;0.10;;;;;;;;;;5070712;28;20088;-79
2024/01/23 07:26:23;;;;;;;0.10;0.10;;;;;;;;;;5074102;28;20140;-79
2024/01/23 07:28:50;;;;;;;0.10;0.10;;;;;;;;;;5068911;28;20128;-80
2024/01/23 07:31:27;;;;;;;0.10;0.10;;;;;;;;;;5069677;28;20056;-80
2024/01/23 07:33:53;;;;;;;0.10;0.10;;;;;;;;;;5062543;28;20048;-80
2024/01/23 07:36:20;;;;;;;0.10;0.10;;;;;;;;;;5069267;28;20123;-79
2024/01/23 07:38:47;;;;;;;0.10;0.10;;;;;;;;;;5068831;28;20041;-79
2024/01/23 07:41:13;;;;;;;0.10;0.10;;;;;;;;;;5071922;28;20080;-79
2024/01/23 07:43:39;;;;;;;0.10;0.10;;;;;;;;;;5071281;28;20522;-79
2024/01/23 07:46:06;;;;;;;0.10;0.10;;;;;;;;;;5070415;28;20068;-79
2024/01/23 07:48:32;;;;;;;0.10;0.10;;;;;;;;;;5066850;28;20049;-79
2024/01/23 07:50:59;;;;;;;0.10;0.10;;;;;;;;;;5068260;28;20056;-79
2024/01/23 07:53:26;;;;;;;0.10;0.10;;;;;;;;;;5068613;28;20057;-79
2024/01/23 07:55:52;;;;;;;0.10;0.10;;;;;;;;;;5068182;28;20114;-80
2024/01/23 07:58:18;;;;;;;0.10;0.10;;;;;;;;;;5069483;28;20052;-79
2024/01/23 08:00:45;;;;;;;0.10;0.10;;;;;;;;;;5052278;28;20499;-80
2024/01/23 08:03:12;;;;;;;0.10;0.10;;;;;;;;;;5069126;28;20069;-79
2024/01/23 08:05:40;;;;;;;0.10;0.10;;;;;;;;;;5067692;28;20053;-80
2024/01/23 08:08:07;;;;;;;0.10;0.10;;;;;;;;;;5049262;28;20053;-80
2024/01/23 08:10:34;;;;;;;0.10;0.10;;;;;;;;;;5066983;28;20523;-80
2024/01/23 08:13:02;;;;;;;0.10;0.10;;;;;;;;;;5061936;28;20057;-79
2024/01/23 08:15:28;;;;;;;0.10;0.10;;;;;;;;;;5052241;28;20037;-80
2024/01/23 08:17:55;;;;;;;13.95;1.85;;;;;;;;;;5059597;28;20218;-79
2024/01/23 08:20:21;;;;;;;0.20;0.20;;;;;;;;;;5068818;28;20521;-79
2024/01/23 08:22:48;;;;;;;0.10;0.10;;;;;;;;;;5069995;28;20055;-80
2024/01/23 08:25:15;;;;;;;0.10;0.10;;;;;;;;;;5068870;28;20057;-80
2024/01/23 08:27:42;;;;;;;0.10;0.10;;;;;;;;;;5067009;28;20923;-80
2024/01/23 08:30:13;;;;;;;0.10;0.10;;;;;;;;;;5048272;28;20503;-79
2024/01/23 08:32:40;;;;;;;0.13;0.13;;;;;;;;;;5069907;28;20419;-80
2024/01/23 08:35:06;;;;;;;0.10;0.10;;;;;;;;;;5067561;28;20049;-80
2024/01/23 08:37:33;;;;;;;0.10;0.10;;;;;;;;;;5067399;28;20450;-80
2024/01/23 08:39:59;;;;;;;0.10;0.10;;;;;;;;;;5067379;28;20057;-80
2024/01/23 08:42:28;;;;;;;0.10;0.10;;;;;;;;;;5064192;28;20055;-79
2024/01/23 08:44:55;;;;;;;0.10;0.10;;;;;;;;;;5068300;28;20659;-80
2024/01/23 08:47:22;;;;;;;0.10;0.10;;;;;;;;;;5067366;28;20577;-80
2024/01/23 08:49:49;;;;;;;0.10;0.10;;;;;;;;;;5070777;28;20495;-80
2024/01/23 08:52:16;;;;;;;0.10;0.10;;;;;;;;;;5065661;28;20530;-80
2024/01/23 08:54:42;;;;;;;0.55;0.55;;;;;;;;;;5063178;28;20053;-80
2024/01/23 08:57:09;;;;;;;0.10;0.10;;;;;;;;;;5065086;28;20049;-80
2024/01/23 08:59:37;;;;;;;0.10;0.10;;;;;;;;;;5049158;28;20135;-79
2024/01/23 09:02:07;;;;;;;1.85;1.75;;;;;;;;;;5066921;28;20053;-79
2024/01/23 09:04:33;;;;;;;0.10;0.10;;;;;;;;;;5057967;28;20139;-79
2024/01/23 09:07:00;;;;;;;0.10;0.10;;;;;;;;;;5067444;28;20071;-80
2024/01/23 09:09:27;;;;;;;0.10;0.10;;;;;;;;;;5067485;28;20915;-79
2024/01/23 09:11:54;;;;;;;0.10;0.10;;;;;;;;;;5065255;28;20077;-79
2024/01/23 09:14:20;;;;;;;0.55;0.55;;;;;;;;;;5064998;28;20103;-78
2024/01/23 09:16:47;;;;;;;0.10;0.10;;;;;;;;;;5046610;28;20053;-77
2024/01/23 09:19:14;;;;;;;0.10;0.10;;;;;;;;;;5048908;28;20057;-78
2024/01/23 09:21:40;;;;;;;0.10;0.10;;;;;;;;;;5063889;28;20083;-78
2024/01/23 09:24:07;;;;;;;0.10;0.10;;;;;;;;;;5063199;28;20073;-78
2024/01/23 09:26:34;;;;;;;0.10;0.10;;;;;;;;;;5067788;28;20053;-78
2024/01/23 09:29:01;;;;;;;0.10;0.10;;;;;;;;;;5063518;28;20059;-79
2024/01/23 09:31:27;;;;;;;0.10;0.10;;;;;;;;;;5065962;28;20580;-79
2024/01/23 09:33:54;;;;;;;0.10;0.10;;;;;;;;;;5065805;28;20057;-78
2024/01/23 09:36:20;;;;;;;0.10;0.10;;;;;;;;;;5065844;28;20480;-78
2024/01/23 09:38:51;;;;;;;0.10;0.10;;;;;;;;;;5063198;28;20052;-79
2024/01/23 09:41:17;;;;;;;0.10;0.10;;;;;;;;;;5070299;28;20053;-79
2024/01/23 09:43:46;;;;;;;0.10;0.10;;;;;;;;;;5068430;28;20057;-79
2024/01/23 09:46:13;;;;;;;0.10;0.10;;;;;;;;;;5069297;28;20077;-78
2024/01/23 09:48:40;;;;;;;0.43;0.43;;;;;;;;;;5066471;28;20046;-79
2024/01/23 09:51:11;;;;;;;0.10;0.10;;;;;;;;;;5072231;28;20053;-79
2024/01/23 09:53:41;;;;;;;0.10;0.10;;;;;;;;;;5067127;28;20056;-78
2024/01/23 09:56:08;;;;;;;0.10;0.10;;;;;;;;;;5065907;28;20485;-78
2024/01/23 09:58:35;;;;;;;0.10;0.10;;;;;;;;;;5067522;28;20142;-78
2024/01/23 10:01:01;;;;;;;0.10;0.10;;;;;;;;;;5064375;28;20057;-78
2024/01/23 10:03:30;;;;;;;0.10;0.10;;;;;;;;;;5064509;28;20053;-79
2024/01/23 10:05:57;;;;;;;0.10;0.10;;;;;;;;;;5066423;28;20045;-78
2024/01/23 10:08:26;;;;;;;0.10;0.10;;;;;;;;;;5131176;22;20520;-80
2024/01/23 10:10:56;;;;;;;0.10;0.10;;;;;;;;;;5029146;28;20518;-80
2024/01/23 10:13:23;;;;;;;0.10;0.10;;;;;;;;;;5007884;28;20050;-80
2024/01/23 10:15:51;;;;;;;0.10;0.10;;;;;;;;;;5009231;28;20094;-80
2024/01/23 10:18:17;;;;;;;0.10;0.10;;;;;;;;;;5013689;28;20850;-80
2024/01/23 10:20:45;;;;;;;0.25;0.25;;;;;;;;;;5020747;28;20053;-79
2024/01/23 10:23:12;;;;;;;0.10;0.10;;;;;;;;;;5012939;28;20104;-80
2024/01/23 10:25:39;;;;;;;0.10;0.10;;;;;;;;;;5012323;28;20145;-80
2024/01/23 10:28:08;;;;;;;0.10;0.10;;;;;;;;;;5025096;28;20030;-79
2024/01/23 10:30:38;;;;;;;0.10;0.10;;;;;;;;;;5029891;28;20085;-80
2024/01/23 10:33:09;;;;;;;0.10;0.10;;;;;;;;;;5014230;28;20093;-79
2024/01/23 10:35:37;;;;;;;0.10;0.10;;;;;;;;;;5021113;28;20508;-80
2024/01/23 10:38:05;;;;;;;0.10;0.10;;;;;;;;;;5030197;28;20050;-81
2024/01/23 10:40:32;;;;;;;0.10;0.10;;;;;;;;;;5014343;28;21019;-81
2024/01/23 10:42:59;;;;;;;0.10;0.10;;;;;;;;;;5033515;28;20057;-79
2024/01/23 10:45:25;;;;;;;0.10;0.10;;;;;;;;;;5023329;28;20517;-80
2024/01/23 10:47:53;;;;;;;0.10;0.10;;;;;;;;;;5014416;28;20054;-80
2024/01/23 10:50:20;;;;;;;0.10;0.10;;;;;;;;;;5030977;28;20053;-80
2024/01/23 10:52:47;;;;;;;0.10;0.10;;;;;;;;;;5027885;28;20085;-80
2024/01/23 10:55:14;;;;;;;0.10;0.10;;;;;;;;;;5008041;28;20443;-79
2024/01/23 10:57:43;;;;;;;0.10;0.10;;;;;;;;;;5010165;28;20065;-80
2024/01/23 11:00:11;;;;;;;0.10;0.10;;;;;;;;;;5015266;28;20065;-80
2024/01/23 11:02:39;;;;;;;0.10;0.10;;;;;;;;;;5022059;28;20913;-80
2024/01/23 11:05:06;;;;;;;0.15;0.15;;;;;;;;;;5017912;28;20053;-79
2024/01/23 11:07:36;;;;;;;0.10;0.10;;;;;;;;;;5016849;28;20531;-80
2024/01/23 11:10:09;;;;;;;0.10;0.10;;;;;;;;;;5015382;28;20042;-80
2024/01/23 11:12:45;;;;;;;0.30;0.30;;;;;;;;;;5011125;28;20052;-80
2024/01/23 11:15:15;;;;;;;0.10;0.10;;;;;;;;;;5028510;28;20045;-80
2024/01/23 11:17:42;;;;;;;0.10;0.10;;;;;;;;;;5031862;28;20371;-80
2024/01/23 11:20:09;;;;;;;0.10;0.10;;;;;;;;;;5014109;28;20084;-80
2024/01/23 11:22:36;;;;;;;0.10;0.10;;;;;;;;;;5013695;28;20053;-79
2024/01/23 11:25:06;;;;;;;0.10;0.10;;;;;;;;;;5028349;28;20057;-80
2024/01/23 11:27:33;;;;;;;0.10;0.10;;;;;;;;;;5016754;28;20054;-80
2024/01/23 11:30:00;;;;;;;0.10;0.10;;;;;;;;;;5026914;28;20112;-79
2024/01/23 11:32:28;;;;;;;0.10;0.10;;;;;;;;;;5012184;28;20054;-79
2024/01/23 11:35:03;;;;;;;0.20;0.20;;;;;;;;;;5015035;28;20057;-79
2024/01/23 11:37:46;;;;;;;0.22;0.22;;;;;;;;;;5011867;28;20062;-79
2024/01/23 11:40:29;;;;;;;0.10;0.10;;;;;;;;;;5008379;28;20062;-80
2024/01/23 11:43:02;;;;;;;0.10;0.10;;;;;;;;;;5004888;28;20366;-78
2024/01/23 11:45:30;;;;;;;0.10;0.10;;;;;;;;;;5009501;28;20054;-78
2024/01/23 11:47:58;;;;;;;0.43;0.40;;;;;;;;;;5024762;28;20144;-79
2024/01/23 11:50:26;;;;;;;0.43;0.40;;;;;;;;;;5028856;28;20060;-79
2024/01/23 11:52:54;;;;;;;0.10;0.10;;;;;;;;;;5011156;28;20092;-79
2024/01/23 11:55:20;;;;;;;1.55;1.00;;;;;;;;;;5023347;28;20050;-79
2024/01/23 11:57:51;;;;;;;0.10;0.10;;;;;;;;;;5014271;28;20085;-79
2024/01/23 12:00:18;;;;;;;0.10;0.10;;;;;;;;;;5007826;28;20116;-79
2024/01/23 12:02:45;;;;;;;0.10;0.10;;;;;;;;;;5029922;28;20050;-79
2024/01/23 12:05:15;;;;;;;0.10;0.10;;;;;;;;;;5011000;28;20054;-79
2024/01/23 12:07:42;;;;;;;0.10;0.10;;;;;;;;;;5011119;28;20064;-79
2024/01/23 12:10:10;;;;;;;0.10;0.10;;;;;;;;;;5012526;28;20913;-79
2024/01/23 12:12:37;;;;;;;0.10;0.10;;;;;;;;;;5030945;28;20081;-79
2024/01/23 12:15:07;;;;;;;0.10;0.10;;;;;;;;;;5023931;28;20077;-79
2024/01/23 12:17:34;;;;;;;0.10;0.10;;;;;;;;;;5010276;28;20300;-79
2024/01/23 12:20:04;;;;;;;0.10;0.10;;;;;;;;;;5029772;28;20054;-78
2024/01/23 12:22:31;;;;;;;0.20;0.20;;;;;;;;;;5026644;28;20050;-78
2024/01/23 12:24:58;;;;;;;0.20;0.20;;;;;;;;;;5025473;28;20972;-78
2024/01/23 12:27:25;;;;;;;0.10;0.10;;;;;;;;;;4993268;28;20692;-78
2024/01/23 12:30:01;;;;;;;0.10;0.10;;;;;;;;;;5025426;28;20493;-78
2024/01/23 12:32:31;;;;;;;0.10;0.10;;;;;;;;;;5024595;28;20085;-78
2024/01/23 12:34:58;;;;;;;0.10;0.10;;;;;;;;;;5035527;28;20144;-80
2024/01/23 12:37:28;;;;;;;0.10;0.10;;;;;;;;;;5013090;28;20053;-78
2024/01/23 12:39:55;;;;;;;0.10;0.10;;;;;;;;;;5014253;28;20054;-78
2024/01/23 12:42:22;;;;;;;0.10;0.10;;;;;;;;;;5009775;28;20042;-77
2024/01/23 12:44:48;;;;;;;0.10;0.10;;;;;;;;;;5030630;28;20065;-78
2024/01/23 12:47:15;;;;;;;7.70;7.10;;;;;;;;;;5012078;28;20140;-79
2024/01/23 12:49:41;;;;;;;0.10;0.10;;;;;;;;;;5027641;28;20930;-79
2024/01/23 12:52:15;;;;;;;0.10;0.10;;;;;;;;;;5021542;28;20046;-79
2024/01/23 12:54:42;;;;;;;0.10;0.10;;;;;;;;;;5002773;28;20440;-79
2024/01/23 12:57:12;;;;;;;0.10;0.10;;;;;;;;;;5012342;28;20065;-78
2024/01/23 12:59:40;;;;;;;0.10;0.10;;;;;;;;;;5025884;28;20100;-79
2024/01/23 13:02:07;;;;;;;1.38;1.30;;;;;;;;;;5007979;28;20096;-79
2024/01/23 13:04:34;;;;;;;0.30;0.30;;;;;;;;;;5016067;28;20084;-79
2024/01/23 13:07:00;;;;;;;0.10;0.10;;;;;;;;;;5009422;28;20084;-78
2024/01/23 13:09:27;;;;;;;0.10;0.10;;;;;;;;;;5006949;28;21135;-78
2024/01/23 13:11:54;;;;;;;0.10;0.10;;;;;;;;;;5023663;28;20050;-78
2024/01/23 13:14:22;;;;;;;0.30;0.30;;;;;;;;;;5024512;28;20054;-78
2024/01/23 13:16:48;;;;;;;0.20;0.20;;;;;;;;;;5006422;28;20061;-77
2024/01/23 13:19:15;;;;;;;0.10;0.10;;;;;;;;;;4995313;28;20049;-77
2024/01/23 13:21:42;;;;;;;0.10;0.10;;;;;;;;;;5001821;28;20061;-77
2024/01/23 13:24:10;;;;;;;0.25;0.25;;;;;;;;;;5007846;28;20914;-77
2024/01/23 13:26:36;;;;;;;0.10;0.10;;;;;;;;;;5007867;28;20145;-78
2024/01/23 13:29:03;;;;;;;1.20;1.13;;;;;;;;;;5007803;28;20570;-78
2024/01/23 13:31:39;;;;;;;0.10;0.10;;;;;;;;;;5020228;28;20054;-77
2024/01/23 13:34:06;;;;;;;0.63;0.30;;;;;;;;;;5011256;28;20542;-77
2024/01/23 13:36:33;;;;;;;0.10;0.10;;;;;;;;;;5008354;28;20125;-77
2024/01/23 13:38:59;;;;;;;0.10;0.10;;;;;;;;;;5010665;28;20097;-78
2024/01/23 13:41:26;;;;;;;0.10;0.10;;;;;;;;;;5008033;28;20053;-78
2024/01/23 13:43:55;;;;;;;0.10;0.10;;;;;;;;;;5003424;28;20058;-78
2024/01/23 13:46:21;;;;;;;0.10;0.10;;;;;;;;;;5017834;28;20483;-79
2024/01/23 13:48:48;;;;;;;0.10;0.10;;;;;;;;;;5022282;28;20137;-80
2024/01/23 13:51:14;;;;;;;0.10;0.10;;;;;;;;;;5015439;28;20140;-78
2024/01/23 13:53:41;;;;;;;0.10;0.10;;;;;;;;;;5016358;28;20030;-79
2024/01/23 13:56:07;;;;;;;0.10;0.10;;;;;;;;;;5009247;28;20053;-78
2024/01/23 13:58:34;;;;;;;0.10;0.10;;;;;;;;;;5018622;28;20129;-78
2024/01/23 14:01:00;;;;;;;0.10;0.10;;;;;;;;;;5014271;28;20040;-78
2024/01/23 14:03:33;;;;;;;0.20;0.20;;;;;;;;;;5017885;28;20056;-79
2024/01/23 14:06:00;;;;;;;0.10;0.10;;;;;;;;;;5005129;28;20181;-78
2024/01/23 14:08:27;;;;;;;0.10;0.10;;;;;;;;;;5006026;28;20050;-79
2024/01/23 14:10:55;;;;;;;0.10;0.10;;;;;;;;;;5012472;28;20069;-78
2024/01/23 14:13:22;;;;;;;0.35;0.35;;;;;;;;;;5018696;28;20144;-79
2024/01/23 14:15:48;;;;;;;0.10;0.10;;;;;;;;;;5024190;28;20207;-79
2024/01/23 14:18:15;;;;;;;0.10;0.10;;;;;;;;;;5040308;28;20050;-79
2024/01/23 14:20:42;;;;;;;0.63;0.28;;;;;;;;;;5027445;28;20141;-79
2024/01/23 14:23:10;;;;;;;0.10;0.10;;;;;;;;;;5032471;28;20042;-79
2024/01/23 14:25:36;;;;;;;1.13;0.85;;;;;;;;;;5034463;28;20129;-79
2024/01/23 14:28:03;;;;;;;0.10;0.10;;;;;;;;;;5018620;28;20054;-79
2024/01/23 14:30:30;;;;;;;0.30;0.30;;;;;;;;;;5016576;28;20118;-79
2024/01/23 14:32:57;;;;;;;4.57;4.13;;;;;;;;;;5023182;28;20081;-79
2024/01/23 14:35:27;;;;;;;0.10;0.10;;;;;;;;;;5027059;28;20180;-79
2024/01/23 14:37:56;;;;;;;0.10;0.10;;;;;;;;;;5014616;28;20148;-79
2024/01/23 14:40:23;;;;;;;0.10;0.10;;;;;;;;;;5020739;28;20201;-79
2024/01/23 14:42:50;;;;;;;0.10;0.10;;;;;;;;;;5016682;28;20559;-79